createdAt,value
2019-02-02T00:01:49.778Z,3.20
2019-02-02T00:04:20.514Z,3.20
2019-02-02T00:06:51.227Z,3.20
2019-02-02T00:09:21.528Z,3.20
2019-02-02T00:11:51.873Z,3.20
2019-02-02T00:14:22.198Z,3.20
2019-02-02T00:16:52.521Z,3.20
2019-02-02T00:19:22.913Z,3.30
2019-02-02T00:21:53.233Z,3.30
2019-02-02T00:24:23.585Z,3.30
2019-02-02T00:26:53.903Z,3.20
2019-02-02T00:29:24.215Z,3.20
2019-02-02T00:31:54.568Z,3.20
2019-02-02T00:34:25.326Z,3.30
2019-02-02T00:36:55.647Z,3.30
2019-02-02T00:39:25.997Z,3.40
2019-02-02T00:41:56.369Z,3.40
2019-02-02T00:44:26.718Z,3.40
2019-02-02T00:46:57.017Z,3.40
2019-02-02T00:49:27.341Z,3.40
2019-02-02T00:51:57.721Z,3.50
2019-02-02T00:54:28.041Z,3.50
2019-02-02T00:56:58.417Z,3.50
2019-02-02T00:59:28.719Z,3.50
2019-02-02T01:01:59.078Z,3.60
2019-02-02T01:04:29.405Z,3.70
2019-02-02T01:06:59.774Z,3.70
2019-02-02T01:09:30.071Z,3.70
2019-02-02T01:12:00.397Z,3.70
2019-02-02T01:14:30.767Z,3.70
2019-02-02T01:17:01.053Z,3.70
2019-02-02T01:19:31.505Z,3.70
2019-02-02T01:22:01.827Z,3.70
2019-02-02T01:24:32.203Z,3.80
2019-02-02T01:27:02.502Z,3.80
2019-02-02T01:29:32.830Z,3.80
2019-02-02T01:32:03.135Z,3.80
2019-02-02T01:34:33.461Z,3.90
2019-02-02T01:37:03.754Z,3.90
2019-02-02T01:39:34.081Z,3.90
2019-02-02T01:42:04.404Z,3.90
2019-02-02T01:44:34.705Z,3.90
2019-02-02T01:47:05.056Z,4.00
2019-02-02T01:49:35.337Z,4.00
2019-02-02T01:52:05.658Z,4.00
2019-02-02T01:54:38.372Z,4.00
2019-02-02T01:57:07.973Z,4.10
2019-02-02T01:59:38.277Z,4.10
2019-02-02T02:02:08.585Z,4.10
2019-02-02T02:04:38.953Z,4.10
2019-02-02T02:07:09.281Z,4.20
2019-02-02T02:09:39.605Z,4.20
2019-02-02T02:12:09.907Z,4.20
2019-02-02T02:14:40.253Z,4.20
2019-02-02T02:17:10.569Z,4.20
2019-02-02T02:19:40.957Z,4.20
2019-02-02T02:22:11.291Z,4.20
2019-02-02T02:24:41.627Z,4.20
2019-02-02T02:27:11.947Z,4.30
2019-02-02T02:29:42.270Z,4.30
2019-02-02T02:32:12.560Z,4.30
2019-02-02T02:34:42.889Z,4.30
2019-02-02T02:37:13.194Z,4.30
2019-02-02T02:39:43.540Z,4.40
2019-02-02T02:42:15.001Z,4.40
2019-02-02T02:44:45.320Z,4.40
2019-02-02T02:47:15.629Z,4.40
2019-02-02T02:49:45.992Z,4.50
2019-02-02T02:52:16.293Z,4.50
2019-02-02T02:54:46.756Z,4.50
2019-02-02T02:57:17.067Z,4.50
2019-02-02T02:59:47.393Z,4.50
2019-02-02T03:02:17.765Z,4.50
2019-02-02T03:04:48.406Z,4.60
2019-02-02T03:07:19.574Z,4.60
2019-02-02T03:09:50.065Z,4.70
2019-02-02T03:12:20.373Z,4.70
2019-02-02T03:14:50.731Z,4.70
2019-02-02T03:17:22.101Z,4.70
2019-02-02T03:19:52.463Z,4.70
2019-02-02T03:22:22.814Z,4.70
2019-02-02T03:24:53.158Z,4.70
2019-02-02T03:27:23.445Z,4.70
2019-02-02T03:29:54.855Z,4.70
2019-02-02T03:32:25.198Z,4.80
2019-02-02T03:34:57.217Z,4.80
2019-02-02T03:37:27.457Z,4.80
2019-02-02T03:39:57.795Z,4.80
2019-02-02T03:42:28.120Z,4.80
2019-02-02T03:44:58.514Z,4.90
2019-02-02T03:47:28.789Z,4.90
2019-02-02T03:49:59.134Z,4.90
2019-02-02T03:52:29.461Z,4.90
2019-02-02T03:54:59.805Z,4.90
2019-02-02T03:57:30.202Z,5.00
2019-02-02T04:00:00.507Z,5.00
2019-02-02T04:02:30.816Z,5.10
2019-02-02T04:05:01.122Z,5.10
2019-02-02T04:07:31.509Z,5.10
2019-02-02T04:10:01.815Z,5.10
2019-02-02T04:12:32.129Z,5.10
2019-02-02T04:15:02.433Z,5.10
2019-02-02T04:17:32.729Z,5.20
2019-02-02T04:20:03.066Z,5.20
2019-02-02T04:22:35.646Z,5.20
2019-02-02T04:25:06.414Z,5.20
2019-02-02T04:27:37.057Z,5.20
2019-02-02T04:30:10.145Z,5.20
2019-02-02T04:32:40.433Z,5.30
2019-02-02T04:35:11.314Z,5.30
2019-02-02T04:37:41.573Z,5.40
2019-02-02T04:40:13.131Z,5.30
2019-02-02T04:42:44.594Z,5.30
2019-02-02T04:45:16.306Z,5.30
2019-02-02T04:47:46.913Z,5.50
2019-02-02T04:50:17.785Z,5.50
2019-02-02T04:52:48.131Z,5.40
2019-02-02T04:55:19.358Z,5.40
2019-02-02T04:57:50.725Z,5.40
2019-02-02T05:00:23.370Z,5.50
2019-02-02T05:02:53.715Z,5.60
2019-02-02T05:05:24.009Z,5.50
2019-02-02T05:07:54.333Z,5.50
2019-02-02T05:10:24.858Z,5.50
2019-02-02T05:12:55.144Z,5.50
2019-02-02T05:15:25.509Z,5.60
2019-02-02T05:17:55.801Z,5.60
2019-02-02T05:20:26.138Z,5.60
2019-02-02T05:22:56.494Z,5.50
2019-02-02T05:25:27.121Z,5.50
2019-02-02T05:27:57.445Z,5.50
2019-02-02T05:30:31.325Z,5.50
2019-02-02T05:33:02.733Z,5.50
2019-02-02T05:35:34.099Z,5.50
2019-02-02T05:38:04.569Z,5.60
2019-02-02T05:40:34.893Z,5.60
2019-02-02T05:43:05.371Z,5.60
2019-02-02T05:45:35.689Z,5.60
2019-02-02T05:48:06.054Z,5.60
2019-02-02T05:50:36.389Z,5.60
2019-02-02T05:53:06.743Z,5.60
2019-02-02T05:55:37.029Z,5.60
2019-02-02T05:58:07.389Z,5.60
2019-02-02T06:00:49.481Z,5.60
2019-02-02T06:03:19.803Z,5.60
2019-02-02T06:05:51.604Z,5.60
2019-02-02T06:08:21.939Z,5.60
2019-02-02T06:10:52.299Z,5.60
2019-02-02T06:13:22.615Z,5.70
2019-02-02T06:15:52.939Z,5.70
2019-02-02T06:18:23.290Z,5.70
2019-02-02T06:20:53.597Z,5.80
2019-02-02T06:23:23.933Z,5.80
2019-02-02T06:25:54.306Z,5.80
2019-02-02T06:28:24.781Z,5.80
2019-02-02T06:30:55.125Z,5.80
2019-02-02T06:33:25.469Z,5.80
2019-02-02T06:35:55.969Z,5.80
2019-02-02T06:38:26.309Z,5.80
2019-02-02T06:40:56.610Z,5.80
2019-02-02T06:43:30.138Z,5.90
2019-02-02T06:45:59.041Z,5.90
2019-02-02T06:48:29.367Z,5.90
2019-02-02T06:51:00.625Z,5.90
2019-02-02T06:53:30.949Z,5.80
2019-02-02T06:56:01.315Z,5.90
2019-02-02T06:58:31.657Z,5.90
2019-02-02T07:01:01.963Z,5.90
2019-02-02T07:03:32.314Z,5.90
2019-02-02T07:06:02.610Z,6.00
2019-02-02T07:08:32.953Z,6.10
2019-02-02T07:11:03.265Z,6.10
2019-02-02T07:13:35.978Z,6.10
2019-02-02T07:16:05.507Z,6.20
2019-02-02T07:18:35.848Z,6.20
2019-02-02T07:21:06.213Z,6.20
2019-02-02T07:23:36.711Z,6.10
2019-02-02T07:26:07.497Z,6.10
2019-02-02T07:28:37.899Z,6.10
2019-02-02T07:31:08.289Z,6.00
2019-02-02T07:33:38.654Z,6.10
2019-02-02T07:36:09.477Z,6.10
2019-02-02T07:38:39.856Z,6.10
2019-02-02T07:41:10.185Z,6.20
2019-02-02T07:43:40.543Z,6.20
2019-02-02T07:46:14.893Z,6.20
2019-02-02T07:48:43.931Z,6.20
2019-02-02T07:51:14.237Z,6.20
2019-02-02T07:53:44.561Z,6.20
2019-02-02T07:56:14.913Z,6.20
2019-02-02T07:58:45.221Z,6.30
2019-02-02T08:01:15.575Z,6.30
2019-02-02T08:03:45.905Z,6.30
2019-02-02T08:06:17.921Z,6.30
2019-02-02T08:08:48.222Z,6.40
2019-02-02T08:11:18.557Z,6.40
2019-02-02T08:13:48.895Z,6.40
2019-02-02T08:16:19.287Z,6.40
2019-02-02T08:18:49.558Z,6.40
2019-02-02T08:21:19.903Z,6.40
2019-02-02T08:23:50.235Z,6.50
2019-02-02T08:26:20.580Z,6.40
2019-02-02T08:28:50.935Z,6.50
2019-02-02T08:31:21.242Z,6.50
2019-02-02T08:33:51.573Z,6.50
2019-02-02T08:36:23.085Z,6.60
2019-02-02T08:38:53.511Z,6.60
2019-02-02T08:41:23.837Z,6.70
2019-02-02T08:43:54.189Z,6.70
2019-02-02T08:46:24.482Z,6.70
2019-02-02T08:48:54.847Z,6.70
2019-02-02T08:51:25.169Z,6.70
2019-02-02T08:53:55.521Z,6.80
2019-02-02T08:56:25.887Z,6.80
2019-02-02T08:58:56.215Z,6.90
2019-02-02T09:01:26.550Z,6.90
2019-02-02T09:03:56.884Z,7.00
2019-02-02T09:06:38.317Z,7.00
2019-02-02T09:09:00.114Z,7.00
2019-02-02T09:11:30.481Z,7.00
2019-02-02T09:14:00.845Z,7.10
2019-02-02T09:16:31.201Z,7.10
2019-02-02T09:19:01.534Z,7.20
2019-02-02T09:21:31.876Z,7.20
2019-02-02T09:24:02.224Z,7.30
2019-02-02T09:26:32.591Z,7.30
2019-02-02T09:29:03.001Z,7.20
2019-02-02T09:31:33.347Z,7.30
2019-02-02T09:34:03.723Z,7.30
2019-02-02T09:36:35.657Z,7.40
2019-02-02T09:39:08.481Z,7.40
2019-02-02T09:41:40.760Z,7.40
2019-02-02T09:44:12.323Z,7.40
2019-02-02T09:46:42.763Z,7.40
2019-02-02T09:49:13.113Z,7.40
2019-02-02T09:51:43.486Z,7.40
2019-02-02T09:54:13.857Z,7.40
2019-02-02T09:56:44.221Z,7.30
2019-02-02T09:59:14.739Z,7.40
2019-02-02T10:01:45.097Z,7.40
2019-02-02T10:04:15.422Z,7.40
2019-02-02T10:06:47.230Z,7.40
2019-02-02T10:09:17.609Z,7.50
2019-02-02T10:11:47.937Z,7.50
2019-02-02T10:14:19.338Z,7.50
2019-02-02T10:16:49.809Z,7.50
2019-02-02T10:19:20.142Z,7.50
2019-02-02T10:21:50.498Z,7.50
2019-02-02T10:24:20.835Z,7.60
2019-02-02T10:26:51.267Z,7.50
2019-02-02T10:29:21.645Z,7.50
2019-02-02T10:31:52.015Z,7.50
2019-02-02T10:34:22.343Z,7.50
2019-02-02T10:36:53.885Z,7.60
2019-02-02T10:39:24.295Z,7.60
2019-02-02T10:41:54.591Z,7.70
2019-02-02T10:44:24.921Z,7.70
2019-02-02T10:46:55.268Z,7.70
2019-02-02T10:49:25.671Z,7.80
2019-02-02T10:51:56.042Z,7.80
2019-02-02T10:54:26.479Z,7.80
2019-02-02T10:56:56.873Z,7.80
2019-02-02T10:59:27.190Z,7.90
2019-02-02T11:01:57.559Z,7.90
2019-02-02T11:04:27.873Z,8.00
2019-02-02T11:06:58.798Z,8.00
2019-02-02T11:09:29.100Z,8.00
2019-02-02T11:11:59.512Z,8.10
2019-02-02T11:14:29.787Z,8.10
2019-02-02T11:17:00.323Z,8.10
2019-02-02T11:19:30.727Z,8.10
2019-02-02T11:22:01.057Z,8.20
2019-02-02T11:24:31.521Z,8.20
2019-02-02T11:27:01.903Z,8.20
2019-02-02T11:29:32.620Z,8.20
2019-02-02T11:32:03.306Z,8.30
2019-02-02T11:34:33.669Z,8.30
2019-02-02T11:37:04.273Z,8.40
2019-02-02T11:39:34.611Z,8.50
2019-02-02T11:42:05.005Z,8.60
2019-02-02T11:44:35.374Z,8.70
2019-02-02T11:47:05.769Z,8.80
2019-02-02T11:49:36.118Z,8.90
2019-02-02T11:52:06.564Z,9.00
2019-02-02T11:54:36.889Z,9.00
2019-02-02T11:57:07.342Z,9.10
2019-02-02T11:59:37.782Z,9.30
2019-02-02T12:02:14.640Z,9.40
2019-02-02T12:04:40.074Z,9.50
2019-02-02T12:07:11.911Z,9.60
2019-02-02T12:09:42.253Z,9.70
2019-02-02T12:12:12.593Z,9.80
2019-02-02T12:14:42.955Z,9.80
2019-02-02T12:17:13.361Z,9.80
2019-02-02T12:19:43.736Z,9.90
2019-02-02T12:22:14.061Z,10.00
2019-02-02T12:24:44.455Z,10.10
2019-02-02T12:27:14.809Z,10.10
2019-02-02T12:29:45.197Z,10.20
2019-02-02T12:32:25.853Z,10.30
2019-02-02T12:34:47.645Z,10.40
2019-02-02T12:37:18.679Z,10.40
2019-02-02T12:39:49.014Z,10.50
2019-02-02T12:42:19.358Z,10.40
2019-02-02T12:44:49.733Z,10.40
2019-02-02T12:47:20.881Z,10.40
2019-02-02T12:49:53.300Z,10.30
2019-02-02T12:52:25.429Z,10.20
2019-02-02T12:54:55.623Z,10.20
2019-02-02T12:57:25.913Z,10.20
2019-02-02T12:59:56.315Z,10.20
2019-02-02T13:02:37.484Z,10.20
2019-02-02T13:04:58.601Z,10.20
2019-02-02T13:07:30.359Z,10.20
2019-02-02T13:10:00.750Z,10.30
2019-02-02T13:12:31.573Z,10.30
2019-02-02T13:15:01.937Z,10.30
2019-02-02T13:17:33.335Z,10.30
2019-02-02T13:20:03.933Z,10.40
2019-02-02T13:22:34.619Z,10.50
2019-02-02T13:25:06.839Z,10.60
2019-02-02T13:27:37.173Z,10.70
2019-02-02T13:30:10.929Z,10.70
2019-02-02T13:32:49.445Z,10.70
2019-02-02T13:35:14.347Z,10.80
2019-02-02T13:37:46.069Z,10.80
2019-02-02T13:40:18.154Z,10.80
2019-02-02T13:42:49.036Z,10.90
2019-02-02T13:45:20.107Z,10.80
2019-02-02T13:47:50.613Z,10.80
2019-02-02T13:50:22.466Z,10.70
2019-02-02T13:52:52.961Z,10.70
2019-02-02T13:55:23.815Z,10.70
2019-02-02T13:57:54.164Z,10.60
2019-02-02T14:00:27.177Z,10.50
2019-02-02T14:03:02.744Z,10.40
2019-02-02T14:05:30.333Z,10.30
2019-02-02T14:08:01.170Z,10.30
2019-02-02T14:10:32.942Z,10.20
2019-02-02T14:13:03.292Z,10.20
2019-02-02T14:15:33.637Z,10.20
2019-02-02T14:18:03.955Z,10.10
2019-02-02T14:20:34.306Z,10.10
2019-02-02T14:23:04.649Z,10.10
2019-02-02T14:25:35.053Z,10.00
2019-02-02T14:28:05.397Z,10.00
2019-02-02T14:30:35.934Z,10.00
2019-02-02T14:33:14.155Z,9.90
2019-02-02T14:35:39.397Z,9.90
2019-02-02T14:38:10.237Z,9.80
2019-02-02T14:40:40.609Z,9.80
2019-02-02T14:43:10.999Z,9.80
2019-02-02T14:45:41.412Z,9.80
2019-02-02T14:48:11.819Z,9.70
2019-02-02T14:50:42.227Z,9.70
2019-02-02T14:53:12.566Z,9.70
2019-02-02T14:55:45.845Z,9.60
2019-02-02T14:58:14.923Z,9.60
2019-02-02T15:00:45.253Z,9.60
2019-02-02T15:03:25.565Z,9.60
2019-02-02T15:05:47.599Z,9.50
2019-02-02T15:08:18.515Z,9.50
2019-02-02T15:10:48.840Z,9.50
2019-02-02T15:13:19.189Z,9.40
2019-02-02T15:15:49.510Z,9.40
2019-02-02T15:18:19.843Z,9.30
2019-02-02T15:20:50.213Z,9.30
2019-02-02T15:23:20.673Z,9.30
2019-02-02T15:25:51.100Z,9.30
2019-02-02T15:28:21.439Z,9.30
2019-02-02T15:30:51.809Z,9.30
2019-02-02T15:33:22.148Z,9.30
2019-02-02T15:35:52.502Z,9.40
2019-02-02T15:38:23.910Z,9.40
2019-02-02T15:40:59.099Z,9.40
2019-02-02T15:43:26.249Z,9.40
2019-02-02T15:45:56.566Z,9.50
2019-02-02T15:48:27.281Z,9.50
2019-02-02T15:50:57.583Z,9.50
2019-02-02T15:53:27.969Z,9.50
2019-02-02T15:55:58.332Z,9.50
2019-02-02T15:58:28.636Z,9.50
2019-02-02T16:00:59.085Z,9.50
2019-02-02T16:03:29.402Z,9.50
2019-02-02T16:05:59.775Z,9.50
2019-02-02T16:08:30.957Z,9.50
2019-02-02T16:11:01.388Z,9.50
2019-02-02T16:13:32.081Z,9.50
2019-02-02T16:16:02.436Z,9.60
2019-02-02T16:18:32.737Z,9.60
2019-02-02T16:21:03.105Z,9.60
2019-02-02T16:23:33.436Z,9.60
2019-02-02T16:26:03.810Z,9.60
2019-02-02T16:28:34.213Z,9.60
2019-02-02T16:31:04.545Z,9.60
2019-02-02T16:33:34.841Z,9.60
2019-02-02T16:36:05.469Z,9.60
2019-02-02T16:38:37.079Z,9.60
2019-02-02T16:41:07.641Z,9.60
2019-02-02T16:43:37.975Z,9.60
2019-02-02T16:46:08.465Z,9.70
2019-02-02T16:48:38.758Z,9.70
2019-02-02T16:51:09.114Z,9.60
2019-02-02T16:53:39.439Z,9.70
2019-02-02T16:56:09.848Z,9.60
2019-02-02T16:58:40.197Z,9.60
2019-02-02T17:01:10.553Z,9.60
2019-02-02T17:03:40.926Z,9.60
2019-02-02T17:06:11.327Z,9.60
2019-02-02T17:08:42.981Z,9.60
2019-02-02T17:11:13.505Z,9.70
2019-02-02T17:13:43.789Z,9.70
2019-02-02T17:16:14.144Z,9.70
2019-02-02T17:18:44.589Z,9.70
2019-02-02T17:21:14.965Z,9.70
2019-02-02T17:23:45.313Z,9.70
2019-02-02T17:26:15.689Z,9.70
2019-02-02T17:28:46.019Z,9.70
2019-02-02T17:31:16.357Z,9.80
2019-02-02T17:33:46.777Z,9.80
2019-02-02T17:36:17.304Z,9.70
2019-02-02T17:38:48.185Z,9.70
2019-02-02T17:41:19.657Z,9.70
2019-02-02T17:43:50.063Z,9.60
2019-02-02T17:46:20.465Z,9.60
2019-02-02T17:48:51.033Z,9.60
2019-02-02T17:51:21.425Z,9.60
2019-02-02T17:53:51.979Z,9.50
2019-02-02T17:56:22.409Z,9.50
2019-02-02T17:58:52.761Z,9.50
2019-02-02T18:01:23.105Z,9.50
2019-02-02T18:03:53.463Z,9.50
2019-02-02T18:06:23.889Z,9.50
2019-02-02T18:08:54.930Z,9.50
2019-02-02T18:11:25.299Z,9.50
2019-02-02T18:13:55.626Z,9.50
2019-02-02T18:16:25.957Z,9.50
2019-02-02T18:18:56.299Z,9.50
2019-02-02T18:21:26.640Z,9.40
2019-02-02T18:23:57.106Z,9.40
2019-02-02T18:26:27.391Z,9.50
2019-02-02T18:28:57.738Z,9.50
2019-02-02T18:31:28.155Z,9.50
2019-02-02T18:33:58.541Z,9.50
2019-02-02T18:36:28.871Z,9.50
2019-02-02T18:39:00.487Z,9.50
2019-02-02T18:41:30.863Z,9.50
2019-02-02T18:44:01.227Z,9.50
2019-02-02T18:46:32.648Z,9.50
2019-02-02T18:49:03.014Z,9.50
2019-02-02T18:51:33.361Z,9.50
2019-02-02T18:54:04.301Z,9.40
2019-02-02T18:56:34.641Z,9.40
2019-02-02T18:59:05.283Z,9.50
2019-02-02T19:01:35.635Z,9.50
2019-02-02T19:04:06.081Z,9.50
2019-02-02T19:06:36.465Z,9.50
2019-02-02T19:09:08.909Z,9.50
2019-02-02T19:11:39.781Z,9.40
2019-02-02T19:14:10.109Z,9.40
2019-02-02T19:16:40.463Z,9.40
2019-02-02T19:19:10.821Z,9.40
2019-02-02T19:21:41.185Z,9.40
2019-02-02T19:24:11.545Z,9.40
2019-02-02T19:26:41.947Z,9.40
2019-02-02T19:29:12.313Z,9.40
2019-02-02T19:31:42.704Z,9.40
2019-02-02T19:34:13.045Z,9.40
2019-02-02T19:36:43.420Z,9.40
2019-02-02T19:39:13.975Z,9.40
2019-02-02T19:41:44.335Z,9.40
2019-02-02T19:44:14.838Z,9.30
2019-02-02T19:46:45.165Z,9.30
2019-02-02T19:49:15.499Z,9.30
2019-02-02T19:51:45.852Z,9.20
2019-02-02T19:54:16.213Z,9.20
2019-02-02T19:56:46.584Z,9.20
2019-02-02T19:59:16.961Z,9.20
2019-02-02T20:01:47.741Z,9.20
2019-02-02T20:04:21.247Z,9.20
2019-02-02T20:06:51.611Z,9.20
2019-02-02T20:09:22.951Z,9.10
2019-02-02T20:11:53.293Z,9.20
2019-02-02T20:14:23.684Z,9.10
2019-02-02T20:16:54.521Z,9.10
2019-02-02T20:19:24.849Z,9.10
2019-02-02T20:21:55.180Z,9.10
2019-02-02T20:24:25.561Z,9.10
2019-02-02T20:26:55.918Z,9.10
2019-02-02T20:29:26.301Z,9.10
2019-02-02T20:31:56.645Z,9.10
2019-02-02T20:34:27.034Z,9.10
2019-02-02T20:36:57.431Z,9.00
2019-02-02T20:39:27.911Z,9.00
2019-02-02T20:42:00.013Z,9.00
2019-02-02T20:44:30.288Z,9.00
2019-02-02T20:47:03.072Z,9.00
2019-02-02T20:49:32.698Z,9.00
2019-02-02T20:52:03.046Z,9.00
2019-02-02T20:54:33.403Z,9.00
2019-02-02T20:57:03.784Z,9.10
2019-02-02T20:59:34.149Z,9.00
2019-02-02T21:02:04.524Z,9.00
2019-02-02T21:04:35.837Z,9.00
2019-02-02T21:07:06.185Z,9.00
2019-02-02T21:09:37.881Z,9.00
2019-02-02T21:12:08.262Z,8.90
2019-02-02T21:14:38.575Z,9.00
2019-02-02T21:17:09.376Z,9.00
2019-02-02T21:19:39.748Z,8.90
2019-02-02T21:22:10.129Z,8.90
2019-02-02T21:24:41.593Z,8.90
2019-02-02T21:27:12.315Z,8.90
2019-02-02T21:29:42.985Z,8.90
2019-02-02T21:32:13.305Z,8.90
2019-02-02T21:34:43.688Z,8.90
2019-02-02T21:37:14.057Z,8.90
2019-02-02T21:39:44.453Z,8.90
2019-02-02T21:42:15.157Z,8.90
2019-02-02T21:44:45.571Z,8.90
2019-02-02T21:47:15.951Z,8.90
2019-02-02T21:49:46.258Z,8.90
2019-02-02T21:52:16.974Z,8.90
2019-02-02T21:54:47.516Z,8.90
2019-02-02T21:57:17.898Z,8.90
2019-02-02T22:00:10.213Z,8.90
2019-02-02T22:02:40.940Z,8.90
2019-02-02T22:05:11.327Z,8.90
2019-02-02T22:07:41.839Z,8.90
2019-02-02T22:10:12.506Z,8.90
2019-02-02T22:12:44.606Z,8.90
2019-02-02T22:15:18.240Z,8.90
2019-02-02T22:17:48.965Z,8.90
2019-02-02T22:20:20.677Z,8.90
2019-02-02T22:22:52.123Z,8.90
2019-02-02T22:25:24.549Z,8.80
2019-02-02T22:27:54.931Z,8.80
2019-02-02T22:30:29.929Z,8.80
2019-02-02T22:33:00.315Z,8.80
2019-02-02T22:35:30.681Z,8.80
2019-02-02T22:38:01.343Z,8.80
2019-02-02T22:40:31.683Z,8.80
2019-02-02T22:43:02.056Z,8.80
2019-02-02T22:45:32.575Z,8.80
2019-02-02T22:48:02.947Z,8.80
2019-02-02T22:50:33.623Z,8.80
2019-02-02T22:53:03.994Z,8.80
2019-02-02T22:55:34.345Z,8.80
2019-02-02T22:58:04.881Z,8.80
2019-02-02T23:01:00.146Z,8.80
2019-02-02T23:03:34.063Z,8.80
2019-02-02T23:06:15.097Z,8.80
2019-02-02T23:09:18.724Z,8.80
2019-02-02T23:12:39.858Z,8.80
2019-02-02T23:15:44.042Z,8.80
2019-02-02T23:18:14.431Z,8.80
2019-02-02T23:20:44.754Z,8.80
2019-02-02T23:23:15.098Z,8.70
2019-02-02T23:25:45.536Z,8.70
2019-02-02T23:28:15.897Z,8.70
2019-02-02T23:30:46.319Z,8.80
2019-02-02T23:33:16.787Z,8.80
2019-02-02T23:35:47.181Z,8.80
2019-02-02T23:38:17.697Z,8.80
2019-02-02T23:40:48.057Z,8.80
2019-02-02T23:43:19.848Z,8.80
2019-02-02T23:45:50.278Z,8.70
2019-02-02T23:48:20.616Z,8.70
2019-02-02T23:50:50.984Z,8.70
2019-02-02T23:53:21.642Z,8.70
2019-02-02T23:55:52.005Z,8.70
2019-02-02T23:58:22.327Z,8.70
